Search for airport 
image banner adimage banner adimage banner ad
image banner ad

KTVL - Lake Tahoe

Located in South Lake Tahoe, United States

ICAO - TVL, IATA - TVL

Data provided by Airmate  

General information

Coordinates: N38°53'38" W119°59'43"
Elevation is 6268 feet MSL.
Magnetic variation is 16° East
View others Airports in California

Operational data

Special qualification required
Current time UTC:
Current local time:
Weather
METAR: KTVL 141053Z AUTO 00000KT 10SM CLR 07/05 A3014 RMK AO2 SLP155 T00720050
TAF: KTVL 140535Z 1406/1506 18007KT P6SM SKC WS020/22035KT FM141700 19010G18KT P6SM FEW250 FM141900 20014G23KT P6SM FEW050 FM150300 17006KT P6SM FEW250 WS020/21030KT
View NOTAMs / SUP AIP / TFR affecting this airport [VIEW]
Communications frequencies: [VIEW]

Runways:

RWY identifierQFULength (ft)Width (ft)SurfaceLDA (ft)
18193°8541100ASPH7017
3613°8541100ASPH5708

Airport contact information

Address: South Lake Tahoe United States

Other aviation service providers

Flight schools

Pacific North Helicopters

Pacific North Helicopters
sindre@pnh-us.com+1(530)544-2211

Satellite view of KTVL